createdAt,value
2018-05-29T00:04:45.458Z,60.38
2018-05-29T00:09:39.524Z,60.07
2018-05-29T00:14:32.806Z,61.87
2018-05-29T00:19:26.866Z,62.78
2018-05-29T00:24:20.161Z,61.32
2018-05-29T00:29:13.487Z,61.13
2018-05-29T00:34:06.766Z,61.54
2018-05-29T00:39:00.062Z,61.65
2018-05-29T00:43:53.351Z,61.83
2018-05-29T00:48:46.634Z,61.02
2018-05-29T00:53:39.954Z,61.94
2018-05-29T00:58:34.010Z,63.49
2018-05-29T01:03:28.819Z,63.06
2018-05-29T01:08:23.727Z,63.55
2018-05-29T01:13:17.195Z,63.71
2018-05-29T01:18:10.471Z,63.87
2018-05-29T01:23:03.762Z,64.18
2018-05-29T01:27:57.058Z,64.64
2018-05-29T01:32:50.335Z,64.42
2018-05-29T01:37:43.626Z,64.51
2018-05-29T01:42:37.684Z,64.29
2018-05-29T01:47:30.971Z,64.67
2018-05-29T01:52:24.299Z,64.47
2018-05-29T01:57:17.588Z,65.04
2018-05-29T02:02:10.885Z,65.25
2018-05-29T02:07:04.174Z,64.94
2018-05-29T02:11:57.468Z,64.78
2018-05-29T02:16:50.760Z,65.85
2018-05-29T02:21:44.826Z,65.68
2018-05-29T02:26:38.091Z,66.34
2018-05-29T02:31:31.396Z,67.28
2018-05-29T02:36:24.692Z,66.51
2018-05-29T02:41:18.763Z,65.89
2018-05-29T02:46:12.073Z,65.44
2018-05-29T02:51:06.125Z,66.20
2018-05-29T02:55:59.415Z,65.79
2018-05-29T03:00:52.708Z,64.79
2018-05-29T03:05:47.495Z,64.30
2018-05-29T03:10:40.810Z,64.77
2018-05-29T03:15:34.117Z,64.32
2018-05-29T03:20:27.387Z,64.17
2018-05-29T03:25:20.677Z,64.05
2018-05-29T03:30:13.961Z,63.59
2018-05-29T03:35:07.270Z,63.37
2018-05-29T03:40:01.404Z,63.44
2018-05-29T03:44:54.700Z,62.80
2018-05-29T03:49:47.981Z,63.46
2018-05-29T03:54:41.319Z,62.65
2018-05-29T03:59:35.382Z,62.43
2018-05-29T04:04:28.681Z,62.05
2018-05-29T04:09:22.783Z,62.35
2018-05-29T04:14:16.100Z,62.31
2018-05-29T04:19:09.383Z,62.06
2018-05-29T04:24:02.674Z,62.38
2018-05-29T04:28:55.999Z,62.15
2018-05-29T04:33:49.286Z,62.96
2018-05-29T04:38:42.574Z,63.00
2018-05-29T04:43:35.894Z,62.79
2018-05-29T04:48:29.180Z,62.10
2018-05-29T04:53:22.484Z,62.63
2018-05-29T04:58:15.811Z,62.61
2018-05-29T05:03:09.112Z,63.09
2018-05-29T05:08:02.426Z,63.19
2018-05-29T05:12:55.727Z,63.44
2018-05-29T05:17:49.018Z,61.95
2018-05-29T05:22:42.340Z,62.62
2018-05-29T05:27:36.406Z,62.99
2018-05-29T05:32:29.739Z,61.55
2018-05-29T05:37:23.027Z,61.75
2018-05-29T05:42:16.316Z,61.37
2018-05-29T05:47:09.620Z,62.65
2018-05-29T05:52:02.910Z,63.01
2018-05-29T05:56:56.976Z,60.79
2018-05-29T06:01:52.169Z,62.28
2018-05-29T06:06:45.484Z,60.46
2018-05-29T06:11:38.770Z,59.09
2018-05-29T06:16:32.051Z,58.61
2018-05-29T06:21:26.124Z,58.11
2018-05-29T06:26:19.566Z,59.03
2018-05-29T06:31:12.863Z,57.91
2018-05-29T06:36:06.199Z,57.48
2018-05-29T06:41:00.379Z,56.43
2018-05-29T06:45:54.510Z,55.81
2018-05-29T06:50:47.804Z,57.65
2018-05-29T06:55:41.108Z,57.16
2018-05-29T07:00:35.205Z,56.43
2018-05-29T07:05:28.524Z,55.61
2018-05-29T07:10:22.685Z,57.42
2018-05-29T07:15:15.997Z,55.77
2018-05-29T07:20:09.297Z,56.44
2018-05-29T07:25:02.584Z,55.27
2018-05-29T07:29:55.911Z,55.72
2018-05-29T07:34:50.024Z,57.05
2018-05-29T07:39:43.312Z,57.34
2018-05-29T07:44:36.596Z,56.98
2018-05-29T07:49:29.887Z,56.41
2018-05-29T07:54:23.202Z,54.67
2018-05-29T07:59:17.318Z,56.24
2018-05-29T08:04:11.420Z,56.32
2018-05-29T08:09:06.547Z,55.87
2018-05-29T08:13:59.843Z,54.98
2018-05-29T08:18:53.151Z,54.12
2018-05-29T08:23:46.564Z,51.66
2018-05-29T08:28:40.625Z,53.18
2018-05-29T08:33:34.219Z,51.58
2018-05-29T08:38:28.435Z,49.18
2018-05-29T08:43:22.531Z,51.63
2018-05-29T08:48:16.598Z,50.60
2018-05-29T08:53:09.897Z,49.59
2018-05-29T08:58:03.962Z,50.63
2018-05-29T09:02:57.262Z,49.50
2018-05-29T09:07:50.647Z,52.43
2018-05-29T09:12:43.947Z,52.11
2018-05-29T09:17:37.223Z,52.07
2018-05-29T09:22:30.531Z,52.32
2018-05-29T09:27:23.835Z,52.06
2018-05-29T09:32:17.142Z,51.14
2018-05-29T09:37:11.236Z,53.01
2018-05-29T09:42:05.305Z,51.14
2018-05-29T09:46:58.609Z,49.39
2018-05-29T09:51:52.701Z,47.11
2018-05-29T09:56:46.757Z,47.78
2018-05-29T10:01:40.069Z,49.84
2018-05-29T10:06:34.146Z,49.35
2018-05-29T10:11:27.438Z,47.18
2018-05-29T10:16:20.738Z,45.71
2018-05-29T10:21:14.055Z,48.08
2018-05-29T10:26:07.380Z,47.64
2018-05-29T10:31:00.756Z,49.97
2018-05-29T10:35:54.020Z,50.95
2018-05-29T10:40:48.926Z,48.41
2018-05-29T10:45:42.281Z,49.05
2018-05-29T10:50:35.589Z,48.61
2018-05-29T10:55:28.906Z,48.10
2018-05-29T11:00:22.183Z,47.62
2018-05-29T11:05:16.255Z,46.50
2018-05-29T11:10:10.323Z,49.23
2018-05-29T11:15:03.591Z,49.90
2018-05-29T11:19:56.912Z,50.23
2018-05-29T11:24:50.337Z,50.22
2018-05-29T11:29:43.651Z,50.28
2018-05-29T11:34:38.455Z,50.13
2018-05-29T11:39:31.757Z,50.08
2018-05-29T11:44:26.732Z,49.05
2018-05-29T11:49:20.060Z,48.77
2018-05-29T11:54:13.479Z,48.54
2018-05-29T11:59:06.802Z,49.87
2018-05-29T12:04:00.887Z,49.72
2018-05-29T12:08:54.213Z,48.42
2018-05-29T12:13:47.513Z,48.77
2018-05-29T12:18:40.792Z,46.57
2018-05-29T12:23:34.083Z,47.23
2018-05-29T12:28:27.374Z,47.66
2018-05-29T12:33:21.445Z,49.33
2018-05-29T12:38:17.241Z,48.53
2018-05-29T12:43:10.683Z,48.04
2018-05-29T12:48:04.928Z,50.78
2018-05-29T12:52:58.229Z,52.67
2018-05-29T12:57:51.558Z,51.50
2018-05-29T13:02:45.658Z,52.04
2018-05-29T13:07:38.976Z,50.11
2018-05-29T13:12:32.277Z,50.05
2018-05-29T13:17:25.650Z,50.09
2018-05-29T13:22:18.956Z,51.42
2018-05-29T13:27:12.357Z,49.82
2018-05-29T13:32:05.668Z,53.10
2018-05-29T13:36:58.987Z,50.96
2018-05-29T13:41:53.068Z,51.06
2018-05-29T13:46:47.169Z,50.33
2018-05-29T13:51:41.275Z,49.45
2018-05-29T13:56:35.369Z,49.59
2018-05-29T14:01:29.402Z,48.72
2018-05-29T14:06:23.267Z,49.52
2018-05-29T14:11:16.604Z,46.54
2018-05-29T14:16:10.084Z,46.88
2018-05-29T14:21:03.416Z,46.40
2018-05-29T14:25:56.728Z,47.86
2018-05-29T14:30:50.026Z,47.50
2018-05-29T14:35:44.169Z,44.04
2018-05-29T14:40:37.460Z,45.36
2018-05-29T14:45:30.779Z,44.65
2018-05-29T14:50:24.866Z,47.01
2018-05-29T14:55:18.192Z,46.06
2018-05-29T15:00:11.500Z,46.91
2018-05-29T15:05:04.905Z,46.74
2018-05-29T15:09:58.984Z,47.29
2018-05-29T15:14:52.288Z,46.18
2018-05-29T15:19:45.626Z,46.66
2018-05-29T15:24:39.036Z,46.89
2018-05-29T15:29:32.304Z,47.28
2018-05-29T15:34:25.616Z,47.82
2018-05-29T15:39:19.687Z,46.55
2018-05-29T15:44:12.990Z,47.32
2018-05-29T15:49:06.304Z,49.05
2018-05-29T15:53:59.590Z,45.51
2018-05-29T15:58:52.884Z,46.91
2018-05-29T16:03:46.792Z,46.58
2018-05-29T16:08:40.871Z,46.95
2018-05-29T16:13:34.171Z,47.92
2018-05-29T16:18:28.246Z,47.54
2018-05-29T16:23:21.559Z,49.42
2018-05-29T16:28:14.910Z,51.33
2018-05-29T16:33:08.190Z,49.40
2018-05-29T16:38:02.250Z,48.84
2018-05-29T16:42:55.575Z,48.53
2018-05-29T16:47:49.747Z,47.78
2018-05-29T16:52:43.080Z,49.46
2018-05-29T16:57:36.974Z,48.74
2018-05-29T17:02:30.266Z,48.89
2018-05-29T17:07:24.285Z,49.13
2018-05-29T17:12:17.583Z,47.44
2018-05-29T17:17:10.899Z,46.21
2018-05-29T17:22:04.192Z,48.78
2018-05-29T17:26:58.284Z,49.29
2018-05-29T17:31:51.599Z,51.29
2018-05-29T17:36:44.895Z,51.47
2018-05-29T17:41:38.209Z,49.11
2018-05-29T17:46:32.251Z,51.27
2018-05-29T17:51:25.761Z,51.60
2018-05-29T17:56:19.407Z,51.20
2018-05-29T18:01:13.742Z,52.37
2018-05-29T18:06:07.243Z,53.03
2018-05-29T18:11:00.565Z,52.79
2018-05-29T18:15:54.068Z,53.47
2018-05-29T18:20:47.445Z,53.13
2018-05-29T18:25:40.851Z,53.35
2018-05-29T18:30:34.211Z,53.55
2018-05-29T18:35:27.565Z,55.27
2018-05-29T18:40:21.637Z,55.47
2018-05-29T18:45:14.969Z,56.01
2018-05-29T18:50:08.314Z,56.50
2018-05-29T18:55:01.593Z,56.24
2018-05-29T18:59:54.938Z,55.79
2018-05-29T19:04:48.235Z,56.68
2018-05-29T19:09:42.492Z,56.89
2018-05-29T19:14:35.783Z,57.56
2018-05-29T19:19:29.075Z,57.65
2018-05-29T19:24:22.384Z,58.11
2018-05-29T19:29:16.440Z,59.12
2018-05-29T19:34:09.742Z,58.71
2018-05-29T19:39:03.046Z,59.33
2018-05-29T19:43:56.355Z,59.11
2018-05-29T19:48:49.677Z,59.85
2018-05-29T19:53:42.988Z,59.55
2018-05-29T19:58:36.280Z,59.92
2018-05-29T20:03:30.493Z,59.86
2018-05-29T20:08:23.813Z,60.33
2018-05-29T20:13:17.137Z,60.42
2018-05-29T20:18:10.422Z,60.71
2018-05-29T20:23:03.712Z,61.86
2018-05-29T20:27:57.020Z,63.07
2018-05-29T20:32:50.361Z,62.78
2018-05-29T20:37:43.651Z,61.59
2018-05-29T20:42:40.184Z,61.23
2018-05-29T20:47:34.410Z,62.02
2018-05-29T20:52:27.714Z,63.71
2018-05-29T20:57:30.395Z,62.67
2018-05-29T21:02:24.627Z,63.70
2018-05-29T21:12:25.834Z,64.05
2018-05-29T21:17:19.120Z,63.68
2018-05-29T21:22:12.489Z,63.02
2018-05-29T21:27:05.784Z,64.21
2018-05-29T21:31:59.128Z,64.19
2018-05-29T21:36:53.211Z,63.31
2018-05-29T21:41:47.275Z,64.03
2018-05-29T21:46:40.592Z,64.33
2018-05-29T21:51:34.655Z,64.28
2018-05-29T21:56:27.967Z,63.93
2018-05-29T22:01:22.655Z,65.36
2018-05-29T22:06:15.963Z,65.62
2018-05-29T22:11:09.261Z,65.48
2018-05-29T22:16:02.663Z,65.39
2018-05-29T22:20:56.028Z,65.65
2018-05-29T22:25:49.490Z,65.52
2018-05-29T22:30:42.823Z,67.51
2018-05-29T22:35:36.121Z,66.32
2018-05-29T22:40:30.232Z,66.48
2018-05-29T22:45:23.496Z,65.95
2018-05-29T22:55:10.147Z,67.34
2018-05-29T23:00:04.259Z,67.24
2018-05-29T23:04:58.311Z,67.89
2018-05-29T23:09:51.620Z,67.63
2018-05-29T23:14:45.692Z,66.69
2018-05-29T23:19:39.005Z,67.68
2018-05-29T23:24:32.301Z,67.52
2018-05-29T23:29:25.608Z,67.14
2018-05-29T23:34:18.960Z,67.87
2018-05-29T23:39:12.503Z,67.63
2018-05-29T23:44:06.568Z,67.33
2018-05-29T23:48:59.872Z,69.20
2018-05-29T23:53:53.997Z,69.24
2018-05-29T23:58:47.309Z,69.96
